createdAt,value
2016-05-16T00:00:42.662Z,87.57
2016-05-16T00:01:42.649Z,87.29
2016-05-16T00:02:42.637Z,87.57
2016-05-16T00:03:42.467Z,87.86
2016-05-16T00:04:42.611Z,88.62
2016-05-16T00:05:42.597Z,89
2016-05-16T00:06:42.570Z,88.81
2016-05-16T00:07:42.556Z,89.28
2016-05-16T00:08:42.543Z,89.86
2016-05-16T00:09:42.530Z,89.67
2016-05-16T00:10:42.517Z,89.95
2016-05-16T00:11:42.504Z,90.05
2016-05-16T00:12:42.491Z,90.23
2016-05-16T00:13:42.479Z,90.42
2016-05-16T00:14:42.450Z,90.05
2016-05-16T00:15:42.453Z,90.14
2016-05-16T00:16:42.424Z,90.66
2016-05-16T00:17:42.411Z,90.52
2016-05-16T00:18:42.398Z,90.42
2016-05-16T00:19:42.416Z,90.8
2016-05-16T00:20:42.372Z,90.33
2016-05-16T00:21:42.360Z,90.61
2016-05-16T00:22:42.346Z,89.76
2016-05-16T00:23:42.349Z,90.23
2016-05-16T00:24:42.305Z,90.42
2016-05-16T00:25:42.136Z,89.76
2016-05-16T00:26:42.279Z,89.28
2016-05-16T00:27:42.266Z,89.42
2016-05-16T00:28:42.097Z,89.76
2016-05-16T00:29:42.240Z,89.57
2016-05-16T00:30:42.227Z,89.95
2016-05-16T00:31:42.198Z,90.37
2016-05-16T00:32:42.046Z,89.76
2016-05-16T00:33:42.017Z,89.19
2016-05-16T00:34:42.473Z,89.28
2016-05-16T00:35:42.194Z,89.28
2016-05-16T00:36:42.134Z,89.95
2016-05-16T00:37:42.121Z,89.95
2016-05-16T00:38:42.108Z,90.23
2016-05-16T00:39:42.095Z,89.86
2016-05-16T00:40:42.083Z,90.23
2016-05-16T00:41:42.054Z,89.86
2016-05-16T00:42:41.884Z,90.9
2016-05-16T00:43:42.028Z,90.61
2016-05-16T00:44:42.014Z,90.71
2016-05-16T00:45:42.002Z,90.14
2016-05-16T00:46:41.974Z,89.95
2016-05-16T00:47:41.977Z,89
2016-05-16T00:48:41.791Z,88.24
2016-05-16T00:49:41.950Z,87.95
2016-05-16T00:50:41.766Z,86.82
2016-05-16T00:51:41.908Z,87.19
2016-05-16T00:52:41.896Z,87.19
2016-05-16T00:53:41.727Z,87.67
2016-05-16T00:54:41.871Z,87.38
2016-05-16T00:55:41.841Z,86.82
2016-05-16T00:56:41.829Z,86.43
2016-05-16T00:57:41.816Z,85.96
2016-05-16T00:58:41.803Z,86.15
2016-05-16T00:59:41.789Z,86.15
2016-05-16T01:00:41.620Z,86.43
2016-05-16T01:01:41.764Z,86.24
2016-05-16T01:02:41.735Z,86.34
2016-05-16T01:03:41.738Z,85.39
2016-05-16T01:04:41.725Z,85.96
2016-05-16T01:05:41.696Z,85.68
2016-05-16T01:06:41.527Z,85.68
2016-05-16T01:07:41.671Z,85.3
2016-05-16T01:08:41.658Z,86.34
2016-05-16T01:09:41.645Z,86.34
2016-05-16T01:10:41.632Z,86.05
2016-05-16T01:11:41.603Z,86.15
2016-05-16T01:12:41.434Z,85.58
2016-05-16T01:13:41.578Z,85.96
2016-05-16T01:14:41.565Z,86.34
2016-05-16T01:15:41.552Z,86.82
2016-05-16T01:16:41.538Z,86.91
2016-05-16T01:17:41.525Z,87.19
2016-05-16T01:18:41.513Z,87.19
2016-05-16T01:19:41.500Z,87.48
2016-05-16T01:20:41.472Z,88.43
2016-05-16T01:21:41.458Z,89
2016-05-16T01:22:41.445Z,89.19
2016-05-16T01:23:41.433Z,89.57
2016-05-16T01:24:41.420Z,90.33
2016-05-16T01:25:41.407Z,90.23
2016-05-16T01:26:41.221Z,90.05
2016-05-16T01:27:41.366Z,90.42
2016-05-16T01:28:41.195Z,90.71
2016-05-16T01:29:41.324Z,90.61
2016-05-16T01:30:41.310Z,90.33
2016-05-16T01:31:41.141Z,90.42
2016-05-16T01:32:41.285Z,90.52
2016-05-16T01:33:41.272Z,89.76
2016-05-16T01:34:41.259Z,90.42
2016-05-16T01:35:41.245Z,90.42
2016-05-16T01:36:41.217Z,90.33
2016-05-16T01:37:41.205Z,90.14
2016-05-16T01:38:41.035Z,89.76
2016-05-16T01:39:41.178Z,89.76
2016-05-16T01:40:41.182Z,90.23
2016-05-16T01:41:41.137Z,90.14
2016-05-16T01:42:40.967Z,90.8
2016-05-16T01:43:41.112Z,90.23
2016-05-16T01:44:41.098Z,90.23
2016-05-16T01:45:41.085Z,90.33
2016-05-16T01:46:41.057Z,90.52
2016-05-16T01:47:41.044Z,90.42
2016-05-16T01:48:41.030Z,90.23
2016-05-16T01:49:41.019Z,90.52
2016-05-16T01:50:41.411Z,90.42
2016-05-16T01:51:41.022Z,90.14
2016-05-16T01:52:40.894Z,90.05
2016-05-16T01:53:41.078Z,90.42
2016-05-16T01:54:41.104Z,90.23
2016-05-16T01:55:41.117Z,89.86
2016-05-16T01:56:41.125Z,89.76
2016-05-16T01:57:41.126Z,90.09
2016-05-16T01:58:41.128Z,90.42
2016-05-16T01:59:41.130Z,91.09
2016-05-16T02:00:41.147Z,91.28
2016-05-16T02:01:41.125Z,91.19
2016-05-16T02:02:41.103Z,91.85
2016-05-16T02:03:41.096Z,91.61
2016-05-16T02:04:41.088Z,91.52
2016-05-16T02:05:41.080Z,91.85
2016-05-16T02:06:41.070Z,91.99
2016-05-16T02:07:41.059Z,91.99
2016-05-16T02:08:41.047Z,92.09
2016-05-16T02:09:41.021Z,91.61
2016-05-16T02:10:41.011Z,92.04
2016-05-16T02:11:40.999Z,91.8
2016-05-16T02:12:40.986Z,92.28
2016-05-16T02:13:40.817Z,91.99
2016-05-16T02:14:40.806Z,92.42
2016-05-16T02:15:40.949Z,92.09
2016-05-16T02:16:40.921Z,91.56
2016-05-16T02:17:40.908Z,91.52
2016-05-16T02:18:40.896Z,91.38
2016-05-16T02:19:40.882Z,91.09
2016-05-16T02:20:41.041Z,91.42
2016-05-16T02:21:40.857Z,91.61
2016-05-16T02:22:40.843Z,91.33
2016-05-16T02:23:40.830Z,91.71
2016-05-16T02:24:40.803Z,92.28
2016-05-16T02:25:40.789Z,92.85
2016-05-16T02:26:40.776Z,92.85
2016-05-16T02:27:40.763Z,92.85
2016-05-16T02:28:40.750Z,92.56
2016-05-16T02:29:40.737Z,92.09
2016-05-16T02:30:40.709Z,91.99
2016-05-16T02:31:40.696Z,91.52
2016-05-16T02:32:40.699Z,91.42
2016-05-16T02:33:40.669Z,91.52
2016-05-16T02:34:40.658Z,92.04
2016-05-16T02:35:40.644Z,91.85
2016-05-16T02:36:40.631Z,92.32
2016-05-16T02:37:40.602Z,92.42
2016-05-16T02:38:40.590Z,92.51
2016-05-16T02:39:40.577Z,93.08
2016-05-16T02:40:40.564Z,92.99
2016-05-16T02:41:40.551Z,92.8
2016-05-16T02:42:40.537Z,92.42
2016-05-16T02:43:40.524Z,91.56
2016-05-16T02:44:40.512Z,91.56
2016-05-16T02:45:40.499Z,91.19
2016-05-16T02:46:40.470Z,91.38
2016-05-16T02:47:40.474Z,91.38
2016-05-16T02:48:40.445Z,91.56
2016-05-16T02:49:40.432Z,91.85
2016-05-16T02:50:40.418Z,91.28
2016-05-16T02:51:40.421Z,90.9
2016-05-16T02:52:40.392Z,90.71
2016-05-16T02:53:40.381Z,90.71
2016-05-16T02:54:40.367Z,90.8
2016-05-16T02:55:40.339Z,91.19
2016-05-16T02:56:40.325Z,91.28
2016-05-16T02:57:40.312Z,91.19
2016-05-16T02:58:40.300Z,91.19
2016-05-16T02:59:40.287Z,91.38
2016-05-16T03:00:40.258Z,90.9
2016-05-16T03:01:40.261Z,91.38
2016-05-16T03:02:40.233Z,91.94
2016-05-16T03:03:40.063Z,92.51
2016-05-16T03:04:40.206Z,93.37
2016-05-16T03:05:40.177Z,93.08
2016-05-16T03:06:40.180Z,92.8
2016-05-16T03:07:40.168Z,92.9
2016-05-16T03:08:40.139Z,92.9
2016-05-16T03:09:40.126Z,93.18
2016-05-16T03:10:40.113Z,93.46
2016-05-16T03:11:40.132Z,93.18
2016-05-16T03:12:40.088Z,93.18
2016-05-16T03:13:40.074Z,93.08
2016-05-16T03:14:40.062Z,93.08
2016-05-16T03:15:40.032Z,92.9
2016-05-16T03:16:40.035Z,93.13
2016-05-16T03:17:40.007Z,92.99
2016-05-16T03:18:39.994Z,93.13
2016-05-16T03:19:39.981Z,92.99
2016-05-16T03:20:39.906Z,92.8
2016-05-16T03:21:39.956Z,93.27
2016-05-16T03:22:39.942Z,93.37
2016-05-16T03:23:39.757Z,93.27
2016-05-16T03:24:39.901Z,93.27
2016-05-16T03:25:39.888Z,93.27
2016-05-16T03:26:39.875Z,93.04
2016-05-16T03:27:39.862Z,93.13
2016-05-16T03:28:39.849Z,93.27
2016-05-16T03:29:39.836Z,93.32
2016-05-16T03:30:39.808Z,93.32
2016-05-16T03:31:39.795Z,93.04
2016-05-16T03:32:39.641Z,93.37
2016-05-16T03:33:39.769Z,93.27
2016-05-16T03:34:39.756Z,92.75
2016-05-16T03:35:40.102Z,93.04
2016-05-16T03:36:39.730Z,93.08
2016-05-16T03:37:39.702Z,92.51
2016-05-16T03:38:39.532Z,92.18
2016-05-16T03:39:39.675Z,91.94
2016-05-16T03:40:39.663Z,92.04
2016-05-16T03:41:39.649Z,92.51
2016-05-16T03:42:39.637Z,92.13
2016-05-16T03:43:39.624Z,92.23
2016-05-16T03:44:39.596Z,92.66
2016-05-16T03:45:39.582Z,92.47
2016-05-16T03:46:39.569Z,92.71
2016-05-16T03:47:39.572Z,92.13
2016-05-16T03:48:39.387Z,92.04
2016-05-16T03:49:39.531Z,92.04
2016-05-16T03:50:39.909Z,92.04
2016-05-16T03:51:39.489Z,91.56
2016-05-16T03:52:39.476Z,91.56
2016-05-16T03:53:39.463Z,91.28
2016-05-16T03:54:39.450Z,90.9
2016-05-16T03:55:39.281Z,90.99
2016-05-16T03:56:39.425Z,90.71
2016-05-16T03:57:39.412Z,90.71
2016-05-16T03:58:39.398Z,90.52
2016-05-16T03:59:39.386Z,90.61
2016-05-16T04:00:39.372Z,91.09
2016-05-16T04:01:39.344Z,90.8
2016-05-16T04:02:39.347Z,90.9
2016-05-16T04:03:39.319Z,90.52
2016-05-16T04:04:39.305Z,90.71
2016-05-16T04:05:39.292Z,90.9
2016-05-16T04:06:39.280Z,91.75
2016-05-16T04:07:39.251Z,91.66
2016-05-16T04:08:39.253Z,91.47
2016-05-16T04:09:39.241Z,91.56
2016-05-16T04:10:39.212Z,91.56
2016-05-16T04:11:39.043Z,92.04
2016-05-16T04:12:39.186Z,92.51
2016-05-16T04:13:39.173Z,92.13
2016-05-16T04:14:39.160Z,92.32
2016-05-16T04:15:39.132Z,92.51
2016-05-16T04:16:39.135Z,92.51
2016-05-16T04:17:39.106Z,92.61
2016-05-16T04:18:39.093Z,92.9
2016-05-16T04:19:38.923Z,93.18
2016-05-16T04:20:39.254Z,92.99
2016-05-16T04:21:39.054Z,93.18
2016-05-16T04:22:39.041Z,93.27
2016-05-16T04:23:39.043Z,92.99
2016-05-16T04:24:39.000Z,92.99
2016-05-16T04:25:38.987Z,93.89
2016-05-16T04:26:38.973Z,94.03
2016-05-16T04:27:38.961Z,93.94
2016-05-16T04:28:38.792Z,94.18
2016-05-16T04:29:38.935Z,93.94
2016-05-16T04:30:38.922Z,94.98
2016-05-16T04:31:38.753Z,94.32
2016-05-16T04:32:38.880Z,93.75
2016-05-16T04:33:38.867Z,93.75
2016-05-16T04:34:38.730Z,94.13
2016-05-16T04:35:38.686Z,93.65
2016-05-16T04:36:38.828Z,92.8
2016-05-16T04:37:38.816Z,91.13
2016-05-16T04:38:38.803Z,90.75
2016-05-16T04:39:38.775Z,91.23
2016-05-16T04:40:38.761Z,91.13
2016-05-16T04:41:38.749Z,91.19
2016-05-16T04:42:38.752Z,90.8
2016-05-16T04:43:38.566Z,90.9
2016-05-16T04:44:38.554Z,90.99
2016-05-16T04:45:38.696Z,90.99
2016-05-16T04:46:38.684Z,91.19
2016-05-16T04:47:38.655Z,91.28
2016-05-16T04:48:38.658Z,91.66
2016-05-16T04:49:38.645Z,90.8
2016-05-16T04:50:38.460Z,89.42
2016-05-16T04:51:38.603Z,86.85
2016-05-16T04:52:38.591Z,85.42
2016-05-16T04:53:38.578Z,83.94
2016-05-16T04:54:38.565Z,82.08
2016-05-16T04:55:38.567Z,80.36
2016-05-16T04:56:38.539Z,78.41
2016-05-16T04:57:38.542Z,76.35
2016-05-16T04:58:38.528Z,74.57
2016-05-16T04:59:38.515Z,72.99
2016-05-16T05:00:38.503Z,70.92
2016-05-16T05:01:38.490Z,69.72
2016-05-16T05:02:38.492Z,67.75
2016-05-16T05:03:38.480Z,66.99
2016-05-16T05:04:38.482Z,66.99
2016-05-16T05:05:39.391Z,67.62
2016-05-16T05:06:38.300Z,67.43
2016-05-16T05:07:38.459Z,66.13
2016-05-16T05:08:38.446Z,65.64
2016-05-16T05:09:38.449Z,64.15
2016-05-16T05:10:38.436Z,63.57
2016-05-16T05:11:38.438Z,63.03
2016-05-16T05:12:38.425Z,62.17
2016-05-16T05:13:38.428Z,61.05
2016-05-16T05:14:38.416Z,61.08
2016-05-16T05:15:38.419Z,60.7
2016-05-16T05:16:38.421Z,60.22
2016-05-16T05:17:38.407Z,58.53
2016-05-16T05:18:38.410Z,57.48
2016-05-16T05:19:38.241Z,57.38
2016-05-16T05:20:38.401Z,58.12
2016-05-16T05:21:38.403Z,59.33
2016-05-16T05:22:38.234Z,59.97
2016-05-16T05:23:38.376Z,62.24
2016-05-16T05:24:38.380Z,63.13
2016-05-16T05:25:38.382Z,63.6
2016-05-16T05:26:38.370Z,63.6
2016-05-16T05:27:38.372Z,63.8
2016-05-16T05:28:38.218Z,63.16
2016-05-16T05:29:38.362Z,61.57
2016-05-16T05:30:38.364Z,61.09
2016-05-16T05:31:38.367Z,60.99
2016-05-16T05:32:38.354Z,61.09
2016-05-16T05:33:38.201Z,61.09
2016-05-16T05:34:38.360Z,60.71
2016-05-16T05:35:38.441Z,61.47
2016-05-16T05:36:38.349Z,62.43
2016-05-16T05:37:38.353Z,62.97
2016-05-16T05:38:38.339Z,63.32
2016-05-16T05:39:38.358Z,64.47
2016-05-16T05:40:38.329Z,65.3
2016-05-16T05:41:38.332Z,66.02
2016-05-16T05:42:38.177Z,67.65
2016-05-16T05:43:38.322Z,67.17
2016-05-16T05:44:38.324Z,67.74
2016-05-16T05:45:38.311Z,68.66
2016-05-16T05:46:38.298Z,69.04
2016-05-16T05:47:38.302Z,70
2016-05-16T05:48:38.287Z,70.53
2016-05-16T05:49:38.135Z,70.44
2016-05-16T05:50:38.559Z,71.11
2016-05-16T05:51:38.280Z,70.82
2016-05-16T05:52:38.267Z,70.92
2016-05-16T05:53:38.271Z,71.39
2016-05-16T05:54:38.257Z,71.96
2016-05-16T05:55:38.245Z,71.39
2016-05-16T05:56:38.232Z,71.58
2016-05-16T05:57:38.234Z,72.06
2016-05-16T05:58:38.221Z,72.12
2016-05-16T05:59:38.208Z,72.31
2016-05-16T06:00:38.195Z,72.63
2016-05-16T06:01:38.182Z,72.41
2016-05-16T06:02:38.185Z,72.92
2016-05-16T06:03:38.172Z,72.6
2016-05-16T06:04:38.159Z,73.55
2016-05-16T06:05:38.162Z,72.16
2016-05-16T06:06:37.992Z,71.39
2016-05-16T06:07:38.136Z,69.23
2016-05-16T06:08:38.123Z,67.55
2016-05-16T06:09:37.969Z,65.96
2016-05-16T06:10:38.113Z,63.6
2016-05-16T06:11:37.958Z,62.62
2016-05-16T06:12:38.103Z,62.49
2016-05-16T06:13:38.089Z,63.32
2016-05-16T06:14:38.092Z,64.15
2016-05-16T06:15:38.094Z,65.58
2016-05-16T06:16:38.082Z,65.96
2016-05-16T06:17:38.068Z,65.77
2016-05-16T06:18:38.056Z,65.93
2016-05-16T06:19:38.060Z,66.41
2016-05-16T06:20:37.905Z,66.56
2016-05-16T06:21:38.049Z,67.04
2016-05-16T06:22:38.035Z,67.14
2016-05-16T06:23:38.023Z,67.14
2016-05-16T06:24:38.026Z,67.29
2016-05-16T06:25:38.012Z,68.05
2016-05-16T06:26:37.999Z,68.69
2016-05-16T06:27:38.002Z,69.07
2016-05-16T06:28:37.973Z,69.93
2016-05-16T06:29:37.976Z,69.74
2016-05-16T06:30:37.807Z,70.12
2016-05-16T06:31:37.950Z,70.69
2016-05-16T06:32:37.938Z,70.59
2016-05-16T06:33:37.939Z,70.59
2016-05-16T06:34:37.928Z,70.94
2016-05-16T06:35:37.915Z,70.37
2016-05-16T06:36:37.745Z,71.03
2016-05-16T06:37:37.889Z,70.94
2016-05-16T06:38:37.875Z,71.32
2016-05-16T06:39:37.878Z,71.7
2016-05-16T06:40:37.866Z,71.95
2016-05-16T06:41:37.853Z,72.27
2016-05-16T06:42:37.839Z,71.98
2016-05-16T06:43:37.827Z,71.89
2016-05-16T06:44:37.813Z,72.33
2016-05-16T06:45:37.832Z,72.24
2016-05-16T06:46:37.803Z,72.14
2016-05-16T06:47:37.775Z,72.81
2016-05-16T06:48:37.778Z,73.38
2016-05-16T06:49:37.765Z,73.19
2016-05-16T06:50:38.127Z,73.38
2016-05-16T06:51:37.755Z,73.76
2016-05-16T06:52:37.726Z,74.24
2016-05-16T06:53:37.713Z,73.47
2016-05-16T06:54:37.699Z,73.47
2016-05-16T06:55:37.687Z,73.38
2016-05-16T06:56:37.674Z,73.76
2016-05-16T06:57:37.505Z,73.57
2016-05-16T06:58:37.507Z,73.66
2016-05-16T06:59:37.682Z,74.33
2016-05-16T07:00:37.637Z,74.04
2016-05-16T07:01:38.109Z,73.85
2016-05-16T07:02:37.628Z,73.66
2016-05-16T07:03:37.598Z,74.9
2016-05-16T07:04:37.587Z,74.58
2016-05-16T07:05:37.573Z,73.76
2016-05-16T07:06:37.560Z,74.33
2016-05-16T07:07:37.548Z,73.66
2016-05-16T07:08:37.534Z,73.38
2016-05-16T07:09:37.537Z,73.66
2016-05-16T07:10:37.508Z,73.38
2016-05-16T07:11:37.495Z,73.47
2016-05-16T07:12:37.483Z,73.57
2016-05-16T07:13:37.470Z,73.76
2016-05-16T07:14:37.457Z,72.94
2016-05-16T07:15:37.460Z,71.89
2016-05-16T07:16:37.431Z,71.22
2016-05-16T07:17:37.433Z,70.84
2016-05-16T07:18:37.421Z,70.5
2016-05-16T07:19:37.407Z,70.31
2016-05-16T07:20:37.394Z,70.4
2016-05-16T07:21:37.397Z,70.12
2016-05-16T07:22:37.369Z,70.02
2016-05-16T07:23:37.216Z,70.12
2016-05-16T07:24:37.359Z,70.31
2016-05-16T07:25:37.346Z,70.02
2016-05-16T07:26:37.332Z,70.02
2016-05-16T07:27:37.335Z,70.78
2016-05-16T07:28:37.307Z,70.59
2016-05-16T07:29:37.309Z,70.78
2016-05-16T07:30:37.297Z,71.07
2016-05-16T07:31:37.284Z,71.64
2016-05-16T07:32:37.270Z,71.98
2016-05-16T07:33:37.258Z,72.08
2016-05-16T07:34:37.245Z,72.46
2016-05-16T07:35:37.092Z,72.02
2016-05-16T07:36:37.234Z,71.93
2016-05-16T07:37:37.206Z,72.12
2016-05-16T07:38:37.193Z,71.83
2016-05-16T07:39:37.040Z,71.73
2016-05-16T07:40:37.184Z,72.21
2016-05-16T07:41:37.169Z,72.65
2016-05-16T07:42:37.158Z,73.13
2016-05-16T07:43:37.144Z,73.41
2016-05-16T07:44:37.131Z,73.41
2016-05-16T07:45:36.977Z,73.61
2016-05-16T07:46:37.121Z,73.7
2016-05-16T07:47:37.107Z,73.61
2016-05-16T07:48:37.094Z,73.61
2016-05-16T07:49:37.083Z,73.41
2016-05-16T07:50:37.069Z,73.32
2016-05-16T07:51:37.057Z,73.7
2016-05-16T07:52:37.043Z,74.46
2016-05-16T07:53:37.030Z,74.46
2016-05-16T07:54:37.033Z,74.75
2016-05-16T07:55:37.004Z,74.56
2016-05-16T07:56:36.851Z,74.27
2016-05-16T07:57:36.837Z,74.37
2016-05-16T07:58:36.982Z,73.61
2016-05-16T07:59:36.969Z,73.61
2016-05-16T08:00:36.956Z,73.61
2016-05-16T08:01:36.943Z,73.89
2016-05-16T08:02:36.929Z,73.32
2016-05-16T08:03:36.760Z,73.03
2016-05-16T08:04:36.919Z,73.22
2016-05-16T08:05:36.890Z,72.88
2016-05-16T08:06:36.893Z,73.07
2016-05-16T08:07:36.725Z,72.31
2016-05-16T08:08:36.852Z,72.31
2016-05-16T08:09:36.855Z,72.6
2016-05-16T08:10:36.842Z,72.12
2016-05-16T08:11:36.828Z,72.21
2016-05-16T08:12:36.816Z,72.21
2016-05-16T08:13:36.802Z,72.5
2016-05-16T08:14:36.806Z,71.83
2016-05-16T08:15:36.793Z,71.39
2016-05-16T08:16:36.624Z,70.72
2016-05-16T08:17:36.767Z,70.82
2016-05-16T08:18:36.769Z,70.5
2016-05-16T08:19:36.741Z,70.31
2016-05-16T08:20:37.056Z,70.25
2016-05-16T08:21:38.074Z,70.06
2016-05-16T08:22:50.624Z,70.06
2016-05-16T08:23:36.705Z,69.77
2016-05-16T08:24:36.708Z,68.82
2016-05-16T08:25:36.679Z,69.01
2016-05-16T08:26:36.682Z,68.63
2016-05-16T08:27:36.668Z,68.53
2016-05-16T08:28:36.656Z,68.76
2016-05-16T08:29:36.642Z,67.99
2016-05-16T08:30:36.473Z,67.71
2016-05-16T08:31:36.633Z,67.71
2016-05-16T08:32:36.604Z,67.04
2016-05-16T08:33:36.607Z,66.94
2016-05-16T08:34:36.437Z,66.12
2016-05-16T08:35:36.596Z,66.02
2016-05-16T08:36:36.584Z,66.28
2016-05-16T08:37:36.570Z,65.74
2016-05-16T08:38:36.558Z,65.17
2016-05-16T08:39:36.404Z,64.4
2016-05-16T08:40:36.531Z,64.31
2016-05-16T08:41:36.534Z,64.4
2016-05-16T08:42:36.522Z,64.5
2016-05-16T08:43:36.352Z,64.12
2016-05-16T08:44:36.496Z,64.02
2016-05-16T08:45:36.341Z,63.45
2016-05-16T08:46:36.485Z,63.2
2016-05-16T08:47:36.489Z,62.91
2016-05-16T08:48:36.475Z,62.65
2016-05-16T08:49:36.463Z,62.81
2016-05-16T08:50:36.746Z,62.94
2016-05-16T08:51:36.452Z,62.55
2016-05-16T08:52:36.455Z,61.79
2016-05-16T08:53:36.441Z,61.25
2016-05-16T08:54:36.460Z,60.77
2016-05-16T08:55:36.432Z,60.23
2016-05-16T08:56:36.419Z,59.66
2016-05-16T08:57:36.405Z,59.37
2016-05-16T08:58:36.408Z,58.8
2016-05-16T08:59:36.395Z,59.56
2016-05-16T09:00:36.398Z,60.2
2016-05-16T09:01:36.384Z,60.77
2016-05-16T09:02:36.372Z,60.93
2016-05-16T09:03:36.376Z,61.51
2016-05-16T09:04:36.362Z,61.03
2016-05-16T09:05:36.412Z,60.93
2016-05-16T09:06:36.351Z,61.13
2016-05-16T09:07:36.339Z,61.25
2016-05-16T09:08:36.342Z,61.22
2016-05-16T09:09:36.328Z,60.87
2016-05-16T09:10:36.331Z,60.96
2016-05-16T09:11:36.318Z,61.16
2016-05-16T09:12:36.321Z,61.69
2016-05-16T09:13:36.308Z,62.27
2016-05-16T09:14:36.311Z,62.15
2016-05-16T09:15:36.297Z,62.27
2016-05-16T09:16:36.285Z,62.24
2016-05-16T09:17:36.271Z,62.37
2016-05-16T09:18:36.258Z,62.08
2016-05-16T09:19:36.294Z,62.18
2016-05-16T09:20:36.499Z,62.18
2016-05-16T09:21:36.252Z,60.74
2016-05-16T09:22:36.238Z,59.81
2016-05-16T09:23:36.225Z,58.58
2016-05-16T09:24:36.228Z,58.22
2016-05-16T09:25:36.216Z,57.87
2016-05-16T09:26:36.218Z,57.07
2016-05-16T09:27:36.205Z,56.34
2016-05-16T09:28:36.208Z,55.31
2016-05-16T09:29:36.195Z,54.45
2016-05-16T09:30:36.198Z,54.19
2016-05-16T09:31:36.200Z,54.48
2016-05-16T09:32:36.046Z,54.22
2016-05-16T09:33:36.190Z,52.59
2016-05-16T09:34:36.209Z,52.69
2016-05-16T09:35:36.180Z,53.33
2016-05-16T09:36:36.182Z,54.07
2016-05-16T09:37:36.029Z,53.97
2016-05-16T09:38:36.172Z,53.23
2016-05-16T09:39:36.175Z,52.85
2016-05-16T09:40:36.162Z,52.69
2016-05-16T09:41:36.164Z,52.2
2016-05-16T09:42:36.167Z,52.4
2016-05-16T09:43:35.998Z,50.96
2016-05-16T09:44:36.157Z,48.97
2016-05-16T09:45:36.159Z,48.97
2016-05-16T09:46:36.162Z,49.45
2016-05-16T09:47:36.164Z,48.59
2016-05-16T09:48:36.152Z,47.34
2016-05-16T09:49:36.155Z,47.44
2016-05-16T09:50:36.282Z,47.44
2016-05-16T09:51:36.145Z,47.63
2016-05-16T09:52:35.991Z,48.28
2016-05-16T09:53:36.135Z,48.64
2016-05-16T09:54:36.168Z,49.4
2016-05-16T09:55:36.140Z,50.65
2016-05-16T09:56:36.127Z,50.36
2016-05-16T09:57:36.130Z,49.91
2016-05-16T09:58:35.961Z,48.57
2016-05-16T09:59:36.119Z,48.95
2016-05-16T10:00:36.122Z,49.21
2016-05-16T10:01:36.109Z,49.38
2016-05-16T10:02:36.112Z,48.71
2016-05-16T10:03:36.098Z,48.61
2016-05-16T10:04:36.101Z,48.52
2016-05-16T10:05:36.229Z,48.25
2016-05-16T10:06:36.091Z,48.44
2016-05-16T10:07:36.079Z,47.89
2016-05-16T10:08:36.081Z,47.63
2016-05-16T10:09:36.084Z,48.3
2016-05-16T10:10:35.914Z,48.57
2016-05-16T10:11:36.073Z,49.02
2016-05-16T10:12:36.076Z,49.02
2016-05-16T10:13:35.907Z,49.79
2016-05-16T10:14:36.707Z,49.79
2016-05-16T10:15:35.897Z,48.54
2016-05-16T10:16:36.040Z,47.68
2016-05-16T10:17:35.886Z,47.51
2016-05-16T10:18:36.045Z,47.44
2016-05-16T10:19:36.032Z,46.31
2016-05-16T10:20:36.239Z,46.22
2016-05-16T10:21:35.866Z,46.12
2016-05-16T10:22:36.025Z,45.37
2016-05-16T10:23:36.044Z,45.26
2016-05-16T10:24:36.014Z,44.97
2016-05-16T10:25:36.017Z,44.9
2016-05-16T10:26:36.004Z,44.73
2016-05-16T10:27:36.007Z,44.56
2016-05-16T10:28:36.010Z,44.92
2016-05-16T10:29:36.013Z,45.11
2016-05-16T10:30:36.000Z,44.9
2016-05-16T10:31:35.846Z,46.19
2016-05-16T10:32:35.990Z,46.29
2016-05-16T10:33:35.835Z,46.1
2016-05-16T10:34:35.995Z,45.54
2016-05-16T10:35:35.840Z,44.7
2016-05-16T10:36:35.985Z,44.34
2016-05-16T10:37:35.987Z,43.12
2016-05-16T10:38:35.973Z,42.47
2016-05-16T10:39:35.977Z,42.35
2016-05-16T10:40:35.980Z,43.12
2016-05-16T10:41:35.967Z,43.96
2016-05-16T10:42:35.813Z,44.9
2016-05-16T10:43:35.956Z,45.54
2016-05-16T10:44:35.959Z,46.98
2016-05-16T10:45:35.961Z,47.25
2016-05-16T10:46:35.792Z,48.09
2016-05-16T10:47:35.951Z,48.09
2016-05-16T10:48:35.954Z,47.42
2016-05-16T10:49:35.941Z,48.09
2016-05-16T10:50:35.928Z,48.18
2016-05-16T10:51:35.774Z,48.54
2016-05-16T10:52:35.919Z,48.47
2016-05-16T10:53:35.921Z,49.21
2016-05-16T10:54:35.752Z,49.14
2016-05-16T10:55:35.911Z,48.38
2016-05-16T10:56:35.913Z,47.78
2016-05-16T10:57:35.940Z,48.25
2016-05-16T10:58:35.975Z,47.61
2016-05-16T10:59:36.008Z,47.71
2016-05-16T11:00:36.058Z,47.42
2016-05-16T11:01:36.107Z,46.39
2016-05-16T11:02:36.115Z,45.93
2016-05-16T11:03:36.135Z,45.64
2016-05-16T11:04:36.154Z,45.47
2016-05-16T11:05:38.003Z,44.78
2016-05-16T11:06:36.163Z,45.54
2016-05-16T11:07:36.172Z,45.36
2016-05-16T11:08:36.181Z,45.45
2016-05-16T11:09:36.174Z,45.45
2016-05-16T11:10:36.167Z,45.07
2016-05-16T11:11:36.176Z,44.7
2016-05-16T11:12:36.181Z,44.61
2016-05-16T11:13:36.169Z,44.78
2016-05-16T11:14:36.175Z,44.76
2016-05-16T11:15:36.179Z,45.23
2016-05-16T11:16:36.013Z,46
2016-05-16T11:17:36.157Z,45.79
2016-05-16T11:18:36.160Z,45.98
2016-05-16T11:19:36.149Z,46.17
2016-05-16T11:20:36.276Z,47.61
2016-05-16T11:21:36.140Z,48.64
2016-05-16T11:22:36.144Z,49.02
2016-05-16T11:23:36.161Z,49.19
2016-05-16T11:24:36.134Z,49.29
2016-05-16T11:25:36.121Z,49.95
2016-05-16T11:26:36.124Z,49.95
2016-05-16T11:27:36.111Z,49.95
2016-05-16T11:28:36.098Z,50.15
2016-05-16T11:29:36.100Z,49.93
2016-05-16T11:30:36.089Z,49.64
2016-05-16T11:31:36.075Z,49.66
2016-05-16T11:32:36.062Z,50.12
2016-05-16T11:33:36.065Z,50.6
2016-05-16T11:34:36.052Z,50.5
2016-05-16T11:35:36.570Z,50.12
2016-05-16T11:36:36.041Z,50.6
2016-05-16T11:37:35.872Z,50.41
2016-05-16T11:38:36.032Z,50.79
2016-05-16T11:39:36.019Z,51.56
2016-05-16T11:40:36.005Z,51.27
2016-05-16T11:41:36.008Z,50.72
2016-05-16T11:42:35.838Z,50.62
2016-05-16T11:43:35.982Z,50.17
2016-05-16T11:44:35.985Z,49.6
2016-05-16T11:45:35.971Z,49.5
2016-05-16T11:46:35.960Z,47.99
2016-05-16T11:47:35.962Z,47.13
2016-05-16T11:48:35.949Z,46.55
2016-05-16T11:49:35.952Z,47.03
2016-05-16T11:50:35.939Z,47.03
2016-05-16T11:51:35.942Z,47.32
2016-05-16T11:52:35.772Z,47.61
2016-05-16T11:53:35.915Z,47.8
2016-05-16T11:54:35.918Z,48.18
2016-05-16T11:55:35.906Z,47.42
2016-05-16T11:56:35.892Z,47.71
2016-05-16T11:57:35.895Z,47.61
2016-05-16T11:58:35.881Z,47.8
2016-05-16T11:59:35.901Z,47.61
2016-05-16T12:00:36.075Z,47.51
2016-05-16T12:01:35.875Z,47.61
2016-05-16T12:02:35.862Z,47.99
2016-05-16T12:03:35.849Z,47.78
2016-05-16T12:04:35.695Z,47.39
2016-05-16T12:05:35.838Z,47.39
2016-05-16T12:06:35.825Z,47.49
2016-05-16T12:07:35.828Z,47.03
2016-05-16T12:08:35.816Z,47.03
2016-05-16T12:09:35.661Z,46.46
2016-05-16T12:10:35.805Z,47.01
2016-05-16T12:11:35.792Z,47.39
2016-05-16T12:12:35.638Z,47.58
2016-05-16T12:13:35.782Z,48.16
2016-05-16T12:14:35.785Z,48.25
2016-05-16T12:15:35.772Z,48.28
2016-05-16T12:16:35.759Z,48.57
2016-05-16T12:17:35.762Z,48.95
2016-05-16T12:18:35.748Z,48.95
2016-05-16T12:19:35.735Z,47.8
2016-05-16T12:20:35.597Z,48.28
2016-05-16T12:21:35.725Z,47.71
2016-05-16T12:22:35.713Z,47.61
2016-05-16T12:23:35.715Z,47.8
2016-05-16T12:24:35.702Z,47.71
2016-05-16T12:25:35.704Z,47.8
2016-05-16T12:26:35.692Z,47.51
2016-05-16T12:27:35.695Z,47.63
2016-05-16T12:28:35.681Z,47.15
2016-05-16T12:29:35.700Z,47.13
2016-05-16T12:30:35.672Z,47.42
2016-05-16T12:31:35.659Z,47.51
2016-05-16T12:32:35.645Z,46.19
2016-05-16T12:33:35.492Z,45.62
2016-05-16T12:34:35.635Z,45.81
2016-05-16T12:35:35.653Z,45.74
2016-05-16T12:36:35.640Z,46
2016-05-16T12:37:35.628Z,45.74
2016-05-16T12:38:35.615Z,45.83
2016-05-16T12:39:35.617Z,44.24
2016-05-16T12:40:35.449Z,43.31
2016-05-16T12:41:35.591Z,43.5
2016-05-16T12:42:35.594Z,44.06
2016-05-16T12:43:35.581Z,44.06
2016-05-16T12:44:35.584Z,43.96
2016-05-16T12:45:35.571Z,43.96
2016-05-16T12:46:35.574Z,43.55
2016-05-16T12:47:35.576Z,43.74
2016-05-16T12:48:35.563Z,44.13
2016-05-16T12:49:35.551Z,44.61
2016-05-16T12:50:35.553Z,45.54
2016-05-16T12:51:35.541Z,46.03
2016-05-16T12:52:35.542Z,46.31
2016-05-16T12:53:35.530Z,46.03
2016-05-16T12:54:35.533Z,45.83
2016-05-16T12:55:35.364Z,45.83